Time;durP1;ratioP1;P1;durP2;ratioP2;P2;SDS_P1;SDS_P2;PMS_P1;PMS_P2;Temp;Humidity;BMP_temperature;BMP_pressure;BME280_temperature;BME280_humidity;BME280_pressure;Samples;Min_cycle;Max_cycle;Signal;HPM_P1;HPM_P2
2022/10/16 00:01:16;;;;;;;9.70;2.70;;;12.80;99.90;;;;;;5040670;28;20132;-60
2022/10/16 00:03:43;;;;;;;10.27;2.10;;;;;;;;;;5036084;28;20037;-60
2022/10/16 00:06:10;;;;;;;9.02;1.98;;;12.90;99.90;;;;;;5043766;28;20033;-60
2022/10/16 00:08:36;;;;;;;9.77;1.85;;;12.90;99.90;;;;;;5036999;28;20041;-60
2022/10/16 00:11:05;;;;;;;7.18;1.85;;;;;;;;;;5040889;28;20554;-60
2022/10/16 00:13:32;;;;;;;7.30;1.77;;;;;;;;;;5036218;28;20044;-60
2022/10/16 00:15:59;;;;;;;7.13;1.60;;;;;;;;;;5032407;28;20033;-60
2022/10/16 00:18:25;;;;;;;8.57;2.10;;;;;;;;;;5031866;28;20559;-60
2022/10/16 00:20:51;;;;;;;8.75;1.98;;;12.70;99.90;;;;;;5032519;28;20044;-60
2022/10/16 00:23:17;;;;;;;7.18;1.77;;;12.90;99.90;;;;;;5032261;28;20037;-60
2022/10/16 00:25:43;;;;;;;9.10;1.92;;;13.10;99.90;;;;;;5032409;28;20034;-60
2022/10/16 00:28:09;;;;;;;10.75;2.63;;;;;;;;;;5031614;28;20418;-60
2022/10/16 00:30:38;;;;;;;7.80;2.30;;;12.50;99.90;;;;;;5031960;28;20518;-60
2022/10/16 00:33:03;;;;;;;8.38;2.25;;;13.10;99.90;;;;;;5031898;28;20045;-60
2022/10/16 00:35:29;;;;;;;9.30;2.05;;;;;;;;;;5032107;28;20042;-60
2022/10/16 00:37:55;;;;;;;8.30;1.80;;;;;;;;;;5031650;28;20493;-60
2022/10/16 00:40:21;;;;;;;8.73;2.00;;;12.70;99.90;;;;;;5031930;28;20121;-60
2022/10/16 00:42:46;;;;;;;7.03;2.22;;;12.80;99.90;;;;;;5031455;28;20052;-59
2022/10/16 00:45:12;;;;;;;6.10;2.28;;;13.10;99.90;;;;;;5031272;28;20033;-60
2022/10/16 00:47:44;;;;;;;8.32;1.80;;;;;;;;;;5031115;28;20449;-60
2022/10/16 00:50:24;;;;;;;7.78;1.90;;;;;;;;;;5031715;28;20187;-60
2022/10/16 00:52:51;;;;;;;5.80;1.63;;;12.80;99.90;;;;;;5014293;28;20041;-60
2022/10/16 00:55:17;;;;;;;6.50;1.40;;;;;;;;;;5031488;28;20075;-60
2022/10/16 00:57:45;;;;;;;8.75;1.60;;;13.00;99.90;;;;;;5013354;28;20041;-60
2022/10/16 01:00:13;;;;;;;6.78;2.03;;;;;;;;;;5031480;28;20380;-60
2022/10/16 01:02:38;;;;;;;6.82;1.70;;;13.30;99.90;;;;;;5031478;28;20392;-60
2022/10/16 01:05:05;;;;;;;8.73;1.83;;;13.00;99.90;;;;;;5028664;28;20147;-59
2022/10/16 01:07:40;;;;;;;8.20;1.60;;;;;;;;;;5034217;28;20076;-60
2022/10/16 01:10:34;;;;;;;6.80;1.65;;;13.20;99.90;;;;;;5040604;28;20045;-60
2022/10/16 01:13:10;;;;;;;6.10;1.50;;;13.30;99.90;;;;;;5030143;28;20037;-59
2022/10/16 01:15:50;;;;;;;6.43;1.50;;;13.90;99.90;;;;;;5041002;28;20051;-60
2022/10/16 01:18:30;;;;;;;6.38;1.65;;;13.80;99.90;;;;;;5035380;28;20051;-60
2022/10/16 01:21:06;;;;;;;6.70;1.50;;;13.90;99.90;;;;;;5038243;28;20092;-60
2022/10/16 01:23:51;;;;;;;6.97;2.00;;;;;;;;;;5035368;28;20116;-60
2022/10/16 01:26:24;;;;;;;6.32;1.27;;;;;;;;;;5037130;28;20034;-60
2022/10/16 01:28:56;;;;;;;8.48;1.63;;;;;;;;;;5032773;28;20116;-60
2022/10/16 01:31:26;;;;;;;9.07;1.77;;;13.40;99.90;;;;;;5018673;28;20084;-60
2022/10/16 01:34:09;;;;;;;7.60;1.65;;;14.30;99.90;;;;;;5039552;28;20080;-60
2022/10/16 01:36:41;;;;;;;5.93;1.40;;;;;;;;;;5035038;28;20033;-60
2022/10/16 01:39:10;;;;;;;6.63;1.52;;;13.40;99.90;;;;;;5024494;28;20049;-59
2022/10/16 01:41:44;;;;;;;8.20;1.63;;;14.00;99.90;;;;;;5033599;28;20048;-60
2022/10/16 01:44:19;;;;;;;8.23;2.90;;;;;;;;;;5041305;28;20108;-60
2022/10/16 01:46:47;;;;;;;4.43;1.70;;;;;;;;;;5032024;28;20033;-60
2022/10/16 01:49:14;;;;;;;4.88;1.58;;;13.70;99.90;;;;;;5021788;28;20069;-60
2022/10/16 01:51:41;;;;;;;6.65;1.77;;;;;;;;;;5032994;28;20549;-61
2022/10/16 01:54:08;;;;;;;5.10;1.60;;;;;;;;;;5036845;28;20695;-61
2022/10/16 01:56:36;;;;;;;6.63;1.58;;;13.20;99.90;;;;;;5033570;28;20046;-60
2022/10/16 01:59:21;;;;;;;5.30;1.73;;;;;;;;;;5034685;28;20049;-60
2022/10/16 02:01:51;;;;;;;7.32;1.77;;;;;;;;;;5038821;28;20056;-61
2022/10/16 02:04:24;;;;;;;4.65;1.60;;;;;;;;;;5035158;28;20036;-60
2022/10/16 02:06:50;;;;;;;5.07;1.70;;;;;;;;;;5037391;28;20031;-61
2022/10/16 02:09:16;;;;;;;5.97;1.85;;;;;;;;;;5033468;28;20029;-61
2022/10/16 02:11:42;;;;;;;6.85;2.10;;;;;;;;;;5037601;28;20494;-61
2022/10/16 02:14:08;;;;;;;8.88;2.33;;;13.00;99.90;;;;;;5038009;28;20064;-61
2022/10/16 02:16:44;;;;;;;5.60;2.00;;;;;;;;;;5035600;28;20068;-61
2022/10/16 02:19:11;;;;;;;6.90;2.10;;;;;;;;;;5036397;28;20048;-61
2022/10/16 02:21:44;;;;;;;5.47;2.05;;;;;;;;;;5034020;28;20036;-61
2022/10/16 02:24:14;;;;;;;9.02;2.92;;;;;;;;;;5036254;28;20037;-60
2022/10/16 02:26:56;;;;;;;9.48;2.45;;;12.70;99.90;;;;;;5032194;28;20044;-60
2022/10/16 02:29:24;;;;;;;7.30;2.30;;;;;;;;;;5035091;28;20034;-60
2022/10/16 02:31:53;;;;;;;6.75;2.30;;;;;;;;;;5021362;28;20048;-60
2022/10/16 02:34:19;;;;;;;8.93;2.03;;;;;;;;;;5034064;28;20044;-60
2022/10/16 02:36:46;;;;;;;5.72;2.00;;;;;;;;;;5037330;28;20044;-60
2022/10/16 02:39:13;;;;;;;7.68;3.08;;;12.70;99.90;;;;;;5032945;28;20045;-60
2022/10/16 02:41:39;;;;;;;7.28;2.70;;;;;;;;;;5037403;28;20568;-60
2022/10/16 02:44:05;;;;;;;6.38;2.30;;;;;;;;;;5038617;28;20037;-60
2022/10/16 02:46:30;;;;;;;7.75;2.08;;;12.90;99.90;;;;;;5034870;28;20395;-60
2022/10/16 02:48:56;;;;;;;5.35;2.10;;;12.90;99.90;;;;;;5037747;28;20037;-60
2022/10/16 02:51:22;;;;;;;7.18;2.30;;;12.90;99.90;;;;;;5034294;28;20029;-60
2022/10/16 02:53:47;;;;;;;9.43;1.90;;;13.00;99.90;;;;;;5037288;28;20392;-59
2022/10/16 02:56:13;;;;;;;4.90;2.05;;;12.90;99.90;;;;;;5032768;28;20029;-59
2022/10/16 02:58:38;;;;;;;5.97;1.90;;;13.40;99.90;;;;;;5038375;28;20033;-59
2022/10/16 03:01:04;;;;;;;6.95;1.90;;;;;;;;;;5043207;28;20041;-59
2022/10/16 03:03:30;;;;;;;6.45;2.13;;;;;;;;;;5038670;28;20047;-59
2022/10/16 03:05:56;;;;;;;6.70;2.13;;;;;;;;;;5042675;28;20113;-59
2022/10/16 03:08:24;;;;;;;4.93;2.08;;;12.80;99.90;;;;;;5036960;28;20457;-59
2022/10/16 03:10:51;;;;;;;6.65;2.25;;;12.90;99.90;;;;;;5040612;28;20045;-59
2022/10/16 03:13:16;;;;;;;5.55;1.98;;;12.80;99.90;;;;;;5042355;28;20037;-59
2022/10/16 03:15:43;;;;;;;8.38;2.58;;;12.70;99.90;;;;;;5036876;28;20039;-60
2022/10/16 03:18:08;;;;;;;6.00;1.90;;;12.80;99.90;;;;;;5040790;28;20170;-59
2022/10/16 03:20:34;;;;;;;6.75;1.67;;;12.70;99.90;;;;;;5035943;28;20136;-59
2022/10/16 03:23:00;;;;;;;6.57;1.92;;;;;;;;;;5038765;28;20033;-60
2022/10/16 03:25:25;;;;;;;6.70;1.70;;;12.80;99.90;;;;;;5036736;28;20087;-59
2022/10/16 03:27:52;;;;;;;6.13;2.10;;;;;;;;;;5017527;28;20455;-60
2022/10/16 03:30:18;;;;;;;5.30;1.92;;;;;;;;;;5035200;28;20044;-60
2022/10/16 03:32:44;;;;;;;6.60;1.58;;;12.80;99.90;;;;;;5035891;28;20052;-60
2022/10/16 03:35:10;;;;;;;6.35;1.58;;;13.00;99.90;;;;;;5041782;28;20047;-60
2022/10/16 03:37:36;;;;;;;6.70;1.92;;;13.00;99.90;;;;;;5036341;28;20053;-59
2022/10/16 03:40:03;;;;;;;5.40;1.55;;;13.10;99.90;;;;;;5038716;28;20076;-60
2022/10/16 03:42:29;;;;;;;5.22;1.50;;;13.30;99.90;;;;;;5044792;28;20047;-60
2022/10/16 03:44:54;;;;;;;5.65;1.98;;;13.30;99.90;;;;;;5035997;28;20112;-60
2022/10/16 03:47:21;;;;;;;6.40;1.50;;;13.50;99.90;;;;;;5043798;28;20064;-60
2022/10/16 03:49:48;;;;;;;7.20;1.40;;;;;;;;;;5017638;28;20049;-60
2022/10/16 03:52:13;;;;;;;5.25;1.60;;;13.40;99.90;;;;;;5042013;28;20068;-60
2022/10/16 03:54:39;;;;;;;5.20;1.55;;;13.50;99.90;;;;;;5033209;28;20076;-59
2022/10/16 03:57:05;;;;;;;6.28;1.40;;;13.40;99.90;;;;;;5020377;28;20045;-59
2022/10/16 03:59:31;;;;;;;7.28;1.83;;;;;;;;;;5044192;28;20037;-59
2022/10/16 04:01:56;;;;;;;6.22;1.60;;;13.20;99.90;;;;;;5035787;28;20403;-59
2022/10/16 04:04:22;;;;;;;4.93;1.63;;;;;;;;;;5043380;28;20044;-60
2022/10/16 04:06:48;;;;;;;6.38;2.28;;;13.30;99.90;;;;;;5034956;28;20052;-59
2022/10/16 04:09:14;;;;;;;5.10;2.05;;;12.90;99.90;;;;;;5040767;28;20029;-59
2022/10/16 04:11:39;;;;;;;5.35;1.95;;;13.10;99.90;;;;;;5034995;28;20076;-59
2022/10/16 04:14:05;;;;;;;8.23;2.22;;;12.90;99.90;;;;;;5043620;28;20487;-59
2022/10/16 04:16:30;;;;;;;7.43;1.90;;;12.80;99.90;;;;;;5037849;28;20040;-60
2022/10/16 04:18:56;;;;;;;6.63;2.50;;;12.60;99.90;;;;;;5038809;28;20083;-60
2022/10/16 04:21:22;;;;;;;9.68;2.40;;;12.60;99.90;;;;;;5035867;28;20497;-59
2022/10/16 04:23:48;;;;;;;8.82;2.92;;;12.50;99.90;;;;;;5039077;28;20056;-59
2022/10/16 04:26:14;;;;;;;7.07;2.30;;;12.50;99.90;;;;;;5040905;28;20236;-59
2022/10/16 04:28:39;;;;;;;8.13;2.28;;;12.50;99.90;;;;;;5039014;28;20150;-59
2022/10/16 04:31:06;;;;;;;7.88;2.60;;;12.50;99.90;;;;;;5040130;28;20164;-59
2022/10/16 04:33:33;;;;;;;9.60;2.40;;;12.60;99.90;;;;;;5037943;28;20036;-59
2022/10/16 04:35:59;;;;;;;5.82;2.42;;;;;;;;;;5039093;28;20040;-59
2022/10/16 04:38:26;;;;;;;10.52;3.55;;;;;;;;;;5035252;28;20494;-59
2022/10/16 04:40:52;;;;;;;6.88;2.30;;;;;;;;;;5037724;28;20044;-60
2022/10/16 04:43:18;;;;;;;6.07;2.08;;;;;;;;;;5041455;28;20041;-59
2022/10/16 04:45:44;;;;;;;8.18;2.55;;;;;;;;;;5038327;28;20126;-60
2022/10/16 04:48:10;;;;;;;7.78;2.17;;;12.50;99.90;;;;;;5039068;28;20411;-60
2022/10/16 04:50:35;;;;;;;6.82;2.28;;;12.30;99.90;;;;;;5037621;28;20045;-59
2022/10/16 04:53:02;;;;;;;7.85;2.30;;;;;;;;;;5038596;28;20563;-59
2022/10/16 04:55:28;;;;;;;6.15;1.90;;;;;;;;;;5017551;28;20095;-59
2022/10/16 04:57:53;;;;;;;4.72;2.03;;;12.50;99.90;;;;;;5037313;28;20033;-60
2022/10/16 05:00:19;;;;;;;6.40;2.08;;;;;;;;;;5040944;28;20046;-60
2022/10/16 05:02:45;;;;;;;10.80;2.30;;;12.50;99.90;;;;;;5037827;28;20109;-59
2022/10/16 05:05:11;;;;;;;7.88;2.30;;;12.40;99.90;;;;;;5038812;28;20498;-59
2022/10/16 05:07:37;;;;;;;6.35;2.25;;;;;;;;;;5036500;28;20086;-59
2022/10/16 05:10:03;;;;;;;6.75;2.00;;;12.40;99.90;;;;;;5037636;28;20408;-59
2022/10/16 05:12:29;;;;;;;5.88;1.92;;;12.50;99.90;;;;;;5034600;28;20036;-59
2022/10/16 05:14:58;;;;;;;5.50;2.15;;;12.30;99.90;;;;;;5040236;28;20041;-59
2022/10/16 05:17:25;;;;;;;6.28;2.58;;;12.40;99.90;;;;;;5034685;28;20034;-59
2022/10/16 05:19:51;;;;;;;8.02;2.78;;;;;;;;;;5038351;28;20030;-59
2022/10/16 05:22:17;;;;;;;5.60;2.90;;;12.60;99.90;;;;;;5034068;28;20479;-59
2022/10/16 05:24:43;;;;;;;7.93;3.85;;;;;;;;;;5038603;28;20079;-59
2022/10/16 05:27:09;;;;;;;7.38;3.67;;;12.50;99.90;;;;;;5039293;28;20068;-58
2022/10/16 05:29:35;;;;;;;5.93;2.70;;;12.20;99.90;;;;;;5036289;28;20121;-58
2022/10/16 05:32:01;;;;;;;9.70;3.20;;;;;;;;;;5038909;28;20113;-59
2022/10/16 05:34:26;;;;;;;8.68;3.50;;;12.60;99.90;;;;;;5034064;28;20045;-58
2022/10/16 05:36:52;;;;;;;9.13;3.63;;;;;;;;;;5037673;28;20041;-59
2022/10/16 05:39:18;;;;;;;8.15;3.33;;;;;;;;;;5034003;28;20718;-59
2022/10/16 05:41:45;;;;;;;7.15;3.10;;;;;;;;;;5038234;28;20454;-58
2022/10/16 05:44:11;;;;;;;9.32;3.83;;;;;;;;;;5039380;28;20396;-59
2022/10/16 05:46:36;;;;;;;6.22;3.40;;;12.60;99.90;;;;;;5036010;28;20065;-59
2022/10/16 05:49:02;;;;;;;9.43;3.58;;;12.60;99.90;;;;;;5038697;28;20450;-59
2022/10/16 05:51:28;;;;;;;8.52;3.65;;;12.60;99.90;;;;;;5034857;28;20037;-59
2022/10/16 05:53:54;;;;;;;7.25;3.85;;;;;;;;;;5028954;28;20372;-59
2022/10/16 05:56:19;;;;;;;8.43;4.20;;;12.70;99.90;;;;;;5033992;28;20514;-60
2022/10/16 05:58:45;;;;;;;7.25;3.60;;;;;;;;;;5038091;28;20044;-59
2022/10/16 06:01:16;;;;;;;7.60;3.13;;;;;;;;;;5038897;28;20064;-59
2022/10/16 06:03:42;;;;;;;7.68;3.65;;;;;;;;;;5034066;28;20037;-59
2022/10/16 06:06:10;;;;;;;8.48;3.30;;;13.00;99.90;;;;;;5035218;28;20061;-59
2022/10/16 06:08:36;;;;;;;8.55;3.20;;;12.80;99.90;;;;;;5032128;28;20033;-60
2022/10/16 06:11:03;;;;;;;8.10;2.65;;;;;;;;;;5035990;28;20037;-60
2022/10/16 06:13:29;;;;;;;8.18;3.20;;;12.70;99.90;;;;;;5039906;28;20044;-60
2022/10/16 06:15:58;;;;;;;11.20;3.65;;;12.70;99.90;;;;;;5032025;28;20033;-60
2022/10/16 06:18:24;;;;;;;8.55;3.28;;;;;;;;;;5014162;28;20037;-59
2022/10/16 06:20:50;;;;;;;9.93;3.65;;;;;;;;;;5031023;28;20481;-59
2022/10/16 06:23:16;;;;;;;6.38;3.17;;;;;;;;;;5037829;28;20036;-58
2022/10/16 06:25:41;;;;;;;8.70;2.92;;;13.00;99.90;;;;;;5021930;28;20041;-59
2022/10/16 06:28:07;;;;;;;9.35;3.20;;;12.90;99.90;;;;;;5034355;28;20406;-59
2022/10/16 06:30:32;;;;;;;8.20;3.05;;;12.80;99.90;;;;;;5039068;28;20090;-59
2022/10/16 06:32:58;;;;;;;11.48;3.13;;;12.80;99.90;;;;;;5031594;28;20033;-59
2022/10/16 06:35:24;;;;;;;11.00;3.60;;;;;;;;;;5039399;28;20041;-59
2022/10/16 06:37:50;;;;;;;7.50;3.28;;;12.90;99.90;;;;;;5029636;28;20045;-59
2022/10/16 06:40:15;;;;;;;6.47;2.17;;;13.00;99.90;;;;;;5037497;28;20040;-58
2022/10/16 06:42:42;;;;;;;7.97;2.60;;;;;;;;;;5039312;28;20037;-59
2022/10/16 06:45:07;;;;;;;9.57;2.72;;;13.00;99.90;;;;;;5034480;28;20041;-59
2022/10/16 06:47:33;;;;;;;7.95;2.63;;;;;;;;;;5039112;28;20040;-59
2022/10/16 06:49:59;;;;;;;6.82;2.65;;;13.00;99.90;;;;;;5031540;28;20041;-58
2022/10/16 06:52:27;;;;;;;7.53;2.20;;;13.50;99.90;;;;;;5039902;28;20415;-59
2022/10/16 06:54:53;;;;;;;9.07;2.40;;;13.00;99.90;;;;;;5013018;28;20038;-59
2022/10/16 06:57:19;;;;;;;9.73;2.92;;;13.00;99.90;;;;;;5037093;28;20035;-59
2022/10/16 06:59:45;;;;;;;7.70;2.20;;;;;;;;;;5030556;28;20072;-59
2022/10/16 07:02:11;;;;;;;7.10;2.08;;;;;;;;;;5015384;28;20042;-59
2022/10/16 07:04:37;;;;;;;8.07;2.10;;;;;;;;;;5013462;28;20037;-59
2022/10/16 07:07:03;;;;;;;7.70;2.17;;;;;;;;;;5011641;28;20038;-58
2022/10/16 07:09:28;;;;;;;5.72;1.98;;;12.90;99.90;;;;;;5029522;28;20056;-59
2022/10/16 07:11:54;;;;;;;6.68;2.22;;;13.10;99.90;;;;;;5029705;28;20121;-59
2022/10/16 07:14:21;;;;;;;7.20;2.05;;;;;;;;;;5037422;28;20073;-59
2022/10/16 07:16:47;;;;;;;8.88;2.78;;;;;;;;;;5034530;28;20041;-60
2022/10/16 07:19:15;;;;;;;10.45;2.58;;;;;;;;;;5035466;28;20033;-60
2022/10/16 07:21:41;;;;;;;14.27;3.47;;;13.00;99.90;;;;;;5015928;28;20402;-59
2022/10/16 07:24:11;;;;;;;9.52;2.47;;;;;;;;;;5015078;28;20034;-59
2022/10/16 07:26:38;;;;;;;8.63;2.35;;;13.00;99.90;;;;;;5015257;28;20113;-59
2022/10/16 07:29:05;;;;;;;6.80;2.72;;;;;;;;;;5021293;28;20041;-59
2022/10/16 07:31:31;;;;;;;8.02;2.53;;;;;;;;;;5028842;28;20072;-58
2022/10/16 07:33:58;;;;;;;6.25;2.17;;;12.70;99.90;;;;;;5029562;28;20124;-59
2022/10/16 07:36:39;;;;;;;6.47;2.90;;;;;;;;;;5029271;28;20045;-60
2022/10/16 07:39:06;;;;;;;9.02;3.60;;;;;;;;;;5028996;28;20041;-60
2022/10/16 07:41:32;;;;;;;8.60;2.88;;;;;;;;;;5011621;28;20053;-59
2022/10/16 07:44:00;;;;;;;7.35;2.92;;;13.30;99.90;;;;;;5012685;28;20048;-59
2022/10/16 07:46:26;;;;;;;8.77;3.58;;;;;;;;;;5015114;28;20034;-59
2022/10/16 07:48:53;;;;;;;9.02;3.40;;;13.40;99.90;;;;;;5032470;28;20111;-59
2022/10/16 07:51:20;;;;;;;8.60;4.10;;;14.00;99.90;;;;;;5033051;28;20033;-59
2022/10/16 07:53:47;;;;;;;10.43;3.90;;;;;;;;;;5030032;28;20041;-60
2022/10/16 07:56:13;;;;;;;12.98;4.30;;;;;;;;;;5033118;28;20582;-59
2022/10/16 07:58:39;;;;;;;8.52;4.57;;;;;;;;;;5031841;28;20049;-60
2022/10/16 08:01:06;;;;;;;8.18;4.07;;;;;;;;;;5032959;28;20052;-60
2022/10/16 08:03:31;;;;;;;8.30;3.55;;;13.60;99.90;;;;;;5032437;28;20042;-59
2022/10/16 08:05:58;;;;;;;7.45;3.70;;;;;;;;;;5024181;28;20048;-59
2022/10/16 08:08:24;;;;;;;7.90;3.30;;;13.50;99.90;;;;;;5025893;28;20044;-60
2022/10/16 08:10:49;;;;;;;10.50;3.17;;;13.50;99.90;;;;;;5029005;28;20045;-59
2022/10/16 08:13:15;;;;;;;7.55;3.15;;;13.70;99.90;;;;;;5008944;28;20456;-59
2022/10/16 08:15:44;;;;;;;7.28;2.88;;;;;;;;;;5021893;28;20038;-60
2022/10/16 08:18:11;;;;;;;10.05;2.40;;;;;;;;;;5027038;28;20120;-59
2022/10/16 08:20:37;;;;;;;9.23;3.15;;;;;;;;;;5024668;28;20080;-60
2022/10/16 08:23:03;;;;;;;8.30;3.10;;;;;;;;;;5020095;28;20247;-60
2022/10/16 08:25:28;;;;;;;7.45;3.38;;;13.40;99.90;;;;;;5027081;28;20533;-60
2022/10/16 08:27:54;;;;;;;7.07;3.00;;;13.60;99.90;;;;;;5024385;28;20073;-59
2022/10/16 08:30:22;;;;;;;8.15;2.42;;;13.60;99.90;;;;;;5022110;28;20053;-60
2022/10/16 08:32:48;;;;;;;10.20;3.15;;;;;;;;;;5031714;28;20415;-59
2022/10/16 08:35:14;;;;;;;6.45;2.70;;;;;;;;;;5029772;28;20041;-60
2022/10/16 08:37:41;;;;;;;8.35;3.42;;;14.10;99.90;;;;;;5031226;28;20045;-59
2022/10/16 08:40:08;;;;;;;9.65;2.70;;;;;;;;;;5021382;28;20033;-60
2022/10/16 08:42:43;;;;;;;11.60;3.85;;;14.30;99.90;;;;;;5027621;28;20037;-59
2022/10/16 08:45:09;;;;;;;8.88;2.42;;;;;;;;;;5016556;28;20409;-60
2022/10/16 08:47:56;;;;;;;8.45;2.60;;;;;;;;;;5025912;28;20407;-58
2022/10/16 08:50:29;;;;;;;13.75;3.05;;;;;;;;;;5022292;28;20043;-60
2022/10/16 08:52:56;;;;;;;11.45;2.70;;;14.50;99.90;;;;;;5020892;28;20044;-60
2022/10/16 08:55:28;;;;;;;9.23;2.83;;;;;;;;;;5028005;28;20079;-60
2022/10/16 08:57:54;;;;;;;11.05;3.22;;;13.70;99.90;;;;;;5025383;28;20041;-59
2022/10/16 09:00:20;;;;;;;11.23;2.65;;;14.40;99.90;;;;;;5024160;28;20045;-59
2022/10/16 09:03:07;;;;;;;7.32;2.35;;;;;;;;;;5030762;28;20061;-59
2022/10/16 09:05:51;;;;;;;8.02;2.72;;;;;;;;;;4980268;28;20134;-59
2022/10/16 09:08:34;;;;;;;13.57;2.85;;;;;;;;;;5019841;28;20033;-59
2022/10/16 09:11:08;;;;;;;7.95;2.60;;;14.70;99.90;;;;;;5022449;28;20060;-59
2022/10/16 09:13:54;;;;;;;10.93;3.10;;;;;;;;;;5027748;28;20037;-59
2022/10/16 09:16:26;;;;;;;7.35;2.70;;;14.80;99.90;;;;;;4999572;28;20047;-60
2022/10/16 09:18:52;;;;;;;8.70;2.58;;;;;;;;;;5018681;28;20069;-60
2022/10/16 09:21:26;;;;;;;11.15;3.05;;;14.70;99.90;;;;;;5021385;28;20516;-60
2022/10/16 09:23:53;;;;;;;10.18;2.40;;;15.20;99.90;;;;;;5029472;28;20434;-60
2022/10/16 09:26:21;;;;;;;7.70;3.35;;;;;;;;;;5025944;28;20054;-59
2022/10/16 09:28:47;;;;;;;14.27;2.65;;;14.80;99.90;;;;;;5016894;28;20078;-60
2022/10/16 09:31:18;;;;;;;8.30;2.47;;;;;;;;;;5013386;28;20071;-60
2022/10/16 09:33:47;;;;;;;11.25;2.67;;;15.00;99.90;;;;;;5028811;28;20516;-60
2022/10/16 09:36:13;;;;;;;9.18;2.55;;;14.90;99.90;;;;;;5030542;28;20120;-60
2022/10/16 09:38:39;;;;;;;12.90;3.08;;;15.00;99.90;;;;;;5028950;28;20067;-60
2022/10/16 09:41:20;;;;;;;10.13;2.25;;;15.00;99.90;;;;;;5030901;28;20041;-60
2022/10/16 09:43:48;;;;;;;12.18;2.97;;;14.60;99.90;;;;;;5029768;28;20033;-60
2022/10/16 09:46:27;;;;;;;13.10;2.30;;;14.80;99.90;;;;;;5012699;28;20045;-60
2022/10/16 09:48:58;;;;;;;7.85;2.50;;;;;;;;;;5030263;28;20044;-60
2022/10/16 09:51:30;;;;;;;10.30;2.20;;;15.20;99.90;;;;;;5029528;28;20059;-60
2022/10/16 09:54:16;;;;;;;9.45;2.20;;;;;;;;;;5029433;28;20530;-60
2022/10/16 09:56:45;;;;;;;7.38;2.22;;;15.70;99.90;;;;;;5029166;28;20053;-60
2022/10/16 09:59:15;;;;;;;9.90;2.42;;;15.40;99.90;;;;;;5008789;28;20084;-60
2022/10/16 10:01:54;;;;;;;11.43;2.47;;;15.90;99.90;;;;;;5027957;28;20495;-60
2022/10/16 10:04:22;;;;;;;12.88;2.95;;;15.80;99.90;;;;;;5024104;28;20507;-60
2022/10/16 10:06:51;;;;;;;12.18;2.60;;;15.80;99.90;;;;;;5026859;28;20037;-60
2022/10/16 10:09:22;;;;;;;13.23;2.58;;;15.80;99.90;;;;;;5026938;28;20103;-60
2022/10/16 10:11:55;;;;;;;13.30;2.42;;;16.50;99.90;;;;;;5028614;28;20041;-60
2022/10/16 10:14:24;;;;;;;10.43;2.95;;;15.70;99.90;;;;;;5027646;28;20038;-59
2022/10/16 10:16:52;;;;;;;13.93;3.10;;;16.20;99.90;;;;;;5006268;28;20045;-59
2022/10/16 10:19:23;;;;;;;19.40;4.45;;;15.40;99.90;;;;;;4995935;28;20041;-60
2022/10/16 10:21:50;;;;;;;13.02;2.83;;;15.10;99.90;;;;;;5020621;28;20033;-59
2022/10/16 10:24:17;;;;;;;11.05;2.75;;;15.40;99.90;;;;;;5022246;28;20053;-60
2022/10/16 10:26:50;;;;;;;19.13;3.20;;;;;;;;;;5020501;28;20030;-59
2022/10/16 10:29:30;;;;;;;13.93;3.17;;;15.50;99.90;;;;;;5024203;28;20061;-60
2022/10/16 10:32:09;;;;;;;17.35;3.47;;;;;;;;;;5026918;28;20124;-60
2022/10/16 10:34:47;;;;;;;11.77;2.65;;;;;;;;;;5018396;28;20454;-59
2022/10/16 10:37:41;;;;;;;12.35;2.67;;;15.10;99.90;;;;;;5024597;28;20040;-58
2022/10/16 10:40:39;;;;;;;13.48;3.00;;;16.00;99.90;;;;;;5026760;28;20044;-59
2022/10/16 10:43:19;;;;;;;17.08;4.00;;;15.30;99.90;;;;;;4992196;28;20049;-60
2022/10/16 10:45:47;;;;;;;12.55;3.30;;;15.20;99.90;;;;;;5006841;28;20081;-58
2022/10/16 10:48:20;;;;;;;17.65;3.33;;;;;;;;;;5029330;28;20030;-59
2022/10/16 10:50:52;;;;;;;11.30;3.60;;;;;;;;;;5008870;28;20049;-59
2022/10/16 10:53:37;;;;;;;11.55;2.80;;;16.00;99.90;;;;;;5027218;28;20053;-59
2022/10/16 10:56:11;;;;;;;12.48;3.05;;;15.90;99.90;;;;;;5021150;28;20116;-59
2022/10/16 10:59:08;;;;;;;10.60;2.55;;;16.10;99.90;;;;;;5028221;28;20247;-59
2022/10/16 11:01:53;;;;;;;8.43;2.17;;;;;;;;;;5032392;28;20071;-59
2022/10/16 11:04:28;;;;;;;14.70;3.38;;;;;;;;;;5031126;28;20069;-60
2022/10/16 11:07:04;;;;;;;22.35;3.55;;;16.20;99.90;;;;;;5024868;28;20037;-60
2022/10/16 11:09:38;;;;;;;12.23;2.60;;;16.00;99.90;;;;;;5026231;28;20499;-60
2022/10/16 11:12:18;;;;;;;11.17;2.90;;;15.40;99.90;;;;;;5030857;28;20037;-60
2022/10/16 11:15:04;;;;;;;10.10;2.42;;;16.60;99.90;;;;;;5036356;28;20044;-60
2022/10/16 11:17:36;;;;;;;14.75;3.80;;;;;;;;;;5033239;28;20246;-60
2022/10/16 11:20:14;;;;;;;16.20;4.13;;;;;;;;;;5039384;28;20037;-60
2022/10/16 11:22:47;;;;;;;12.18;2.65;;;16.00;99.90;;;;;;5036493;28;20411;-60
2022/10/16 11:25:29;;;;;;;10.90;2.60;;;15.70;99.90;;;;;;5034468;28;20044;-59
2022/10/16 11:28:03;;;;;;;16.13;2.28;;;16.30;99.90;;;;;;5012134;28;20041;-59
2022/10/16 11:30:33;;;;;;;7.22;1.98;;;16.50;99.90;;;;;;5043865;28;20037;-59
2022/10/16 11:33:24;;;;;;;10.18;2.85;;;16.20;99.90;;;;;;5016065;28;20037;-60
2022/10/16 11:36:08;;;;;;;11.02;2.85;;;16.90;99.90;;;;;;5040364;28;20084;-60
2022/10/16 11:38:56;;;;;;;17.38;3.38;;;16.60;99.90;;;;;;5036175;28;20079;-60
2022/10/16 11:41:36;;;;;;;8.68;3.22;;;17.10;99.90;;;;;;5039355;28;20034;-58
2022/10/16 11:44:21;;;;;;;11.00;2.92;;;;;;;;;;5028835;28;20049;-59
2022/10/16 11:46:51;;;;;;;12.50;2.45;;;;;;;;;;5039554;28;20045;-59
2022/10/16 11:49:25;;;;;;;12.02;2.50;;;17.30;99.90;;;;;;5039282;28;20041;-59
2022/10/16 11:51:53;;;;;;;7.73;2.00;;;17.50;99.90;;;;;;5038734;28;20048;-59
2022/10/16 11:54:38;;;;;;;9.63;2.00;;;17.50;99.90;;;;;;5020426;28;20045;-59
2022/10/16 11:57:15;;;;;;;8.98;2.53;;;17.50;99.90;;;;;;5038300;28;20073;-59
2022/10/16 11:59:43;;;;;;;9.70;2.45;;;17.40;99.90;;;;;;5042252;28;20499;-59
2022/10/16 12:02:28;;;;;;;9.70;2.20;;;17.30;99.90;;;;;;5037688;28;20422;-59
2022/10/16 12:05:23;;;;;;;12.05;2.70;;;17.40;99.90;;;;;;5022280;28;20261;-59
2022/10/16 12:08:12;;;;;;;14.35;2.90;;;;;;;;;;5036052;28;20037;-59
2022/10/16 12:10:40;;;;;;;11.40;2.30;;;18.20;99.90;;;;;;5031874;28;20129;-59
2022/10/16 12:13:30;;;;;;;11.95;3.45;;;19.50;99.90;;;;;;5031466;28;20045;-59
2022/10/16 12:16:14;;;;;;;8.45;2.42;;;20.00;99.90;;;;;;5034196;28;20117;-59
2022/10/16 12:18:42;;;;;;;10.63;2.42;;;19.50;99.90;;;;;;5036912;28;20467;-59
2022/10/16 12:21:08;;;;;;;14.13;2.92;;;20.30;99.90;;;;;;5033808;28;20045;-59
2022/10/16 12:23:46;;;;;;;11.52;2.72;;;20.60;99.90;;;;;;5023341;28;20056;-60
2022/10/16 12:26:12;;;;;;;12.50;2.53;;;20.60;99.90;;;;;;5040767;28;20037;-60
2022/10/16 12:28:39;;;;;;;8.38;2.05;;;22.10;99.90;;;;;;5021304;28;20045;-60
2022/10/16 12:31:08;;;;;;;11.63;2.58;;;22.50;99.90;;;;;;5039443;28;20442;-60
2022/10/16 12:33:36;;;;;;;8.13;2.20;;;22.90;99.90;;;;;;5038052;28;20044;-60
2022/10/16 12:36:08;;;;;;;9.45;2.10;;;22.70;99.90;;;;;;5038907;28;20407;-60
2022/10/16 12:38:52;;;;;;;14.45;2.45;;;23.10;99.90;;;;;;5036100;28;20467;-60
2022/10/16 12:41:35;;;;;;;13.52;3.72;;;22.60;99.90;;;;;;5037680;28;20038;-60
2022/10/16 12:44:02;;;;;;;12.40;3.15;;;22.70;99.90;;;;;;5027704;28;20065;-61
2022/10/16 12:46:30;;;;;;;8.00;2.20;;;22.70;99.90;;;;;;5036941;28;20038;-60
2022/10/16 12:49:28;;;;;;;10.00;2.53;;;22.70;99.90;;;;;;5040567;28;20451;-60
2022/10/16 12:51:54;;;;;;;10.27;2.80;;;22.20;99.90;;;;;;5019958;28;20052;-60
2022/10/16 12:54:37;;;;;;;10.85;2.60;;;21.90;99.90;;;;;;5037426;28;20038;-60
2022/10/16 12:57:27;;;;;;;10.20;2.00;;;21.60;99.90;;;;;;5036987;28;20037;-60
2022/10/16 13:00:31;;;;;;;11.00;2.50;;;21.20;99.90;;;;;;5040293;28;20034;-60
2022/10/16 13:03:21;;;;;;;8.32;2.15;;;20.80;99.90;;;;;;5019387;28;20056;-60
2022/10/16 13:06:24;;;;;;;8.73;2.03;;;20.50;99.90;;;;;;5039691;28;20418;-60
2022/10/16 13:09:01;;;;;;;9.63;2.53;;;20.60;99.90;;;;;;5035661;28;20037;-60
2022/10/16 13:12:04;;;;;;;10.65;3.00;;;21.80;99.90;;;;;;5036528;28;20041;-60
2022/10/16 13:14:45;;;;;;;11.85;2.20;;;21.90;99.90;;;;;;5036422;28;20042;-61
2022/10/16 13:17:14;;;;;;;7.35;1.77;;;22.30;99.90;;;;;;5034955;28;20041;-61
2022/10/16 13:20:07;;;;;;;9.98;2.35;;;22.40;99.90;;;;;;5038816;28;20041;-59
2022/10/16 13:22:55;;;;;;;10.70;2.97;;;22.70;99.90;;;;;;5034558;28;20045;-60
2022/10/16 13:25:35;;;;;;;10.88;2.63;;;22.90;99.90;;;;;;5034516;28;20036;-60
2022/10/16 13:28:09;;;;;;;11.13;1.95;;;22.00;99.90;;;;;;5034559;28;20033;-60
2022/10/16 13:30:52;;;;;;;9.43;2.10;;;22.40;99.90;;;;;;5023527;28;20040;-60
2022/10/16 13:33:31;;;;;;;9.77;2.97;;;20.80;99.90;;;;;;5017629;28;20088;-60
2022/10/16 13:35:57;;;;;;;9.48;2.28;;;20.60;99.90;;;;;;5030102;28;20072;-60
2022/10/16 13:38:32;;;;;;;11.43;2.78;;;22.00;99.90;;;;;;5016419;28;20037;-60
2022/10/16 13:41:18;;;;;;;11.15;2.30;;;21.50;99.90;;;;;;5036461;28;20144;-60
2022/10/16 13:43:49;;;;;;;11.82;2.20;;;21.50;99.90;;;;;;5023991;28;20048;-59